Time;durP1;ratioP1;P1;durP2;ratioP2;P2;SDS_P1;SDS_P2;PMS_P1;PMS_P2;Temp;Humidity;BMP_temperature;BMP_pressure;BME280_temperature;BME280_humidity;BME280_pressure;Samples;Min_cycle;Max_cycle;Signal;HPM_P1;HPM_P2
2023/01/16 00:02:00;;;;;;;10.20;4.68;;;3.80;99.90;;;;;;5099168;28;20040;-58
2023/01/16 00:04:27;;;;;;;8.98;4.60;;;3.90;99.90;;;;;;5081951;28;20183;-58
2023/01/16 00:06:53;;;;;;;9.63;4.97;;;3.60;99.90;;;;;;5102621;28;20055;-57
2023/01/16 00:09:19;;;;;;;9.70;4.78;;;4.10;99.90;;;;;;5100071;28;20048;-58
2023/01/16 00:11:45;;;;;;;8.85;4.13;;;3.70;99.90;;;;;;5102319;28;20055;-57
2023/01/16 00:14:10;;;;;;;7.97;3.78;;;3.80;99.90;;;;;;5099734;28;20127;-57
2023/01/16 00:16:36;;;;;;;9.00;3.70;;;4.00;99.90;;;;;;5103000;28;20051;-58
2023/01/16 00:19:02;;;;;;;6.53;2.95;;;4.20;99.90;;;;;;5100621;28;20055;-56
2023/01/16 00:21:28;;;;;;;9.20;3.40;;;3.70;99.90;;;;;;5101932;28;20040;-57
2023/01/16 00:23:58;;;;;;;7.82;3.00;;;3.80;99.90;;;;;;5083868;28;20689;-57
2023/01/16 00:26:25;;;;;;;10.32;4.00;;;4.30;99.90;;;;;;5100064;28;20119;-58
2023/01/16 00:28:51;;;;;;;10.57;4.30;;;3.80;99.90;;;;;;5102350;28;20040;-58
2023/01/16 00:31:17;;;;;;;9.30;4.20;;;4.40;99.90;;;;;;5099366;28;20566;-58
2023/01/16 00:33:43;;;;;;;10.13;4.78;;;4.10;99.90;;;;;;5102299;28;20278;-58
2023/01/16 00:36:10;;;;;;;8.63;4.40;;;4.50;99.90;;;;;;5100128;28;20051;-57
2023/01/16 00:38:36;;;;;;;9.55;4.93;;;4.90;99.90;;;;;;5100144;28;20052;-57
2023/01/16 00:41:03;;;;;;;9.75;4.90;;;4.30;99.90;;;;;;5101894;28;20051;-57
2023/01/16 00:43:28;;;;;;;10.13;4.47;;;4.50;99.90;;;;;;5099347;28;20100;-57
2023/01/16 00:45:56;;;;;;;9.73;4.93;;;4.00;99.90;;;;;;5102171;28;20055;-57
2023/01/16 00:48:22;;;;;;;11.30;5.40;;;4.60;99.90;;;;;;5099214;28;20047;-57
2023/01/16 00:50:48;;;;;;;10.15;5.80;;;3.90;99.90;;;;;;5083555;28;20363;-58
2023/01/16 00:53:14;;;;;;;10.38;4.88;;;4.00;99.90;;;;;;5099311;28;20040;-57
2023/01/16 00:55:41;;;;;;;11.40;5.93;;;4.40;99.90;;;;;;5082501;28;20100;-58
2023/01/16 00:58:08;;;;;;;12.98;5.82;;;4.50;99.90;;;;;;5080878;28;20048;-58
2023/01/16 01:00:34;;;;;;;11.82;5.63;;;4.10;99.90;;;;;;5079155;28;20094;-58
2023/01/16 01:03:00;;;;;;;11.75;6.47;;;4.50;99.90;;;;;;5081315;28;20036;-58
2023/01/16 01:05:25;;;;;;;10.43;5.43;;;4.20;99.90;;;;;;5078672;28;20044;-58
2023/01/16 01:07:51;;;;;;;11.38;5.90;;;4.40;99.90;;;;;;5080859;28;20037;-58
2023/01/16 01:10:17;;;;;;;11.90;5.57;;;4.50;99.90;;;;;;5079031;28;20095;-58
2023/01/16 01:12:42;;;;;;;9.40;5.00;;;4.60;99.90;;;;;;5080353;28;20499;-58
2023/01/16 01:15:08;;;;;;;11.88;4.75;;;4.40;99.90;;;;;;5080330;28;20109;-56
2023/01/16 01:17:34;;;;;;;9.88;4.50;;;4.50;99.90;;;;;;5079376;28;20097;-57
2023/01/16 01:20:00;;;;;;;10.65;4.88;;;4.00;99.90;;;;;;5080863;28;20041;-58
2023/01/16 01:22:26;;;;;;;11.32;5.63;;;4.30;99.90;;;;;;5078012;28;20040;-58
2023/01/16 01:24:52;;;;;;;9.18;4.70;;;4.20;99.90;;;;;;5080912;28;20107;-58
2023/01/16 01:27:18;;;;;;;8.98;4.40;;;4.30;99.90;;;;;;5078495;28;20098;-58
2023/01/16 01:29:44;;;;;;;7.47;4.40;;;4.50;99.90;;;;;;5080432;28;20053;-58
2023/01/16 01:32:10;;;;;;;10.38;4.00;;;4.50;99.90;;;;;;5079920;28;20047;-58
2023/01/16 01:34:36;;;;;;;10.40;4.50;;;4.20;99.90;;;;;;5079044;28;20048;-57
2023/01/16 01:37:03;;;;;;;10.07;4.18;;;3.90;99.90;;;;;;5080783;28;20048;-58
2023/01/16 01:39:29;;;;;;;10.25;4.72;;;3.90;99.90;;;;;;5077916;28;20051;-58
2023/01/16 01:42:41;;;;;;;9.85;4.50;;;4.20;99.90;;;;;;5080612;28;20044;-57
2023/01/16 01:44:55;;;;;;;8.60;4.30;;;4.10;99.90;;;;;;5078598;28;20044;-58
2023/01/16 01:47:30;;;;;;;10.25;5.38;;;4.00;99.90;;;;;;5078957;28;20109;-57
2023/01/16 01:49:59;;;;;;;9.15;4.50;;;3.80;99.90;;;;;;5080325;28;20044;-58
2023/01/16 01:52:26;;;;;;;9.70;3.78;;;4.10;99.90;;;;;;5077832;28;20047;-58
2023/01/16 01:54:58;;;;;;;10.38;3.63;;;4.00;99.90;;;;;;5092690;28;20058;-58
2023/01/16 01:57:32;;;;;;;9.63;3.42;;;3.80;99.90;;;;;;5098823;28;20043;-58
2023/01/16 02:00:09;;;;;;;9.30;4.88;;;4.30;99.90;;;;;;5099779;28;20115;-59
2023/01/16 02:02:39;;;;;;;8.88;4.00;;;4.30;99.90;;;;;;5101041;28;20046;-58
2023/01/16 02:05:08;;;;;;;9.13;3.30;;;4.30;99.90;;;;;;5097683;28;20051;-58
2023/01/16 02:07:34;;;;;;;9.63;3.60;;;4.20;99.90;;;;;;5100321;28;20089;-58
2023/01/16 02:10:34;;;;;;;7.65;3.20;;;4.40;99.90;;;;;;5098089;28;20044;-58
2023/01/16 02:13:01;;;;;;;12.50;3.38;;;3.90;99.90;;;;;;5098973;28;20044;-58
2023/01/16 02:15:28;;;;;;;6.82;3.38;;;3.90;99.90;;;;;;5100934;28;20044;-58
2023/01/16 02:20:45;;;;;;;9.30;3.72;;;4.30;99.90;;;;;;5100368;28;20066;-58
2023/01/16 02:23:28;;;;;;;9.77;3.38;;;4.00;99.90;;;;;;5098482;28;20052;-57
2023/01/16 02:25:53;;;;;;;;;;;3.80;99.90;;;;;;5081128;28;20048;-58
2023/01/16 02:28:55;;;;;;;8.13;3.28;;;4.30;99.90;;;;;;5100530;28;19920;-57
2023/01/16 02:31:48;;;;;;;10.98;3.80;;;4.10;99.90;;;;;;5079178;28;20044;-58
2023/01/16 02:34:38;;;;;;;10.85;3.33;;;4.00;99.90;;;;;;5099540;28;20079;-58
2023/01/16 02:37:29;;;;;;;9.50;3.30;;;4.30;99.90;;;;;;5100508;28;20036;-57
2023/01/16 02:40:32;;;;;;;7.93;3.25;;;4.30;99.90;;;;;;5097590;28;20044;-58
2023/01/16 02:43:36;;;;;;;6.40;3.05;;;3.90;99.90;;;;;;5061175;28;20076;-57
2023/01/16 02:46:27;;;;;;;9.80;3.13;;;3.90;99.90;;;;;;4998130;28;20077;-58
2023/01/16 02:48:58;;;;;;;10.25;3.33;;;4.30;99.90;;;;;;4987851;28;20065;-58
2023/01/16 02:51:24;;;;;;;10.60;3.90;;;3.80;99.90;;;;;;5066316;28;20496;-58
2023/01/16 02:54:16;;;;;;;9.65;3.50;;;3.80;99.90;;;;;;5096383;28;20096;-57
2023/01/16 02:56:53;;;;;;;10.43;4.03;;;4.40;99.90;;;;;;5077024;28;20105;-58
2023/01/16 02:59:21;;;;;;;7.95;3.53;;;3.90;99.90;;;;;;5079974;28;20053;-58
2023/01/16 03:01:49;;;;;;;8.77;3.65;;;4.00;99.90;;;;;;5080205;28;20044;-57
2023/01/16 03:04:36;;;;;;;9.90;3.40;;;4.30;99.90;;;;;;5082873;28;20056;-57
2023/01/16 03:07:32;;;;;;;9.05;3.53;;;3.90;99.90;;;;;;5083816;28;20059;-57
2023/01/16 03:10:19;;;;;;;10.70;3.85;;;3.80;99.90;;;;;;5081029;28;20071;-58
2023/01/16 03:13:10;;;;;;;8.10;3.47;;;4.40;99.90;;;;;;5082926;28;20610;-58
2023/01/16 03:15:45;;;;;;;10.38;3.95;;;4.10;99.90;;;;;;5083734;28;20044;-58
2023/01/16 03:18:31;;;;;;;8.70;4.10;;;4.30;99.90;;;;;;5080596;28;20041;-57
2023/01/16 03:21:19;;;;;;;9.65;3.55;;;3.80;99.90;;;;;;5065626;28;20067;-58
2023/01/16 03:24:16;;;;;;;11.68;3.33;;;4.20;99.90;;;;;;5082683;28;20048;-57
2023/01/16 03:26:46;;;;;;;10.20;3.75;;;3.90;99.90;;;;;;5080280;28;20050;-57
2023/01/16 03:29:17;;;;;;;10.18;3.53;;;3.90;99.90;;;;;;5083052;28;20059;-57
2023/01/16 03:31:46;;;;;;;10.18;3.85;;;3.80;99.90;;;;;;5062347;28;20059;-57
2023/01/16 03:34:28;;;;;;;13.32;3.50;;;4.30;99.90;;;;;;5082765;28;20048;-58
2023/01/16 03:37:09;;;;;;;11.02;3.92;;;4.40;99.90;;;;;;5082951;28;20072;-58
2023/01/16 03:39:42;;;;;;;8.90;3.33;;;4.30;99.90;;;;;;5080247;28;20048;-57
2023/01/16 03:42:10;;;;;;;;;;;4.00;99.90;;;;;;5065175;28;20058;-57
2023/01/16 03:44:44;;;;;;;10.68;4.65;;;4.20;99.90;;;;;;5080914;28;19928;-59
2023/01/16 03:47:15;;;;;;;8.73;3.22;;;4.40;99.90;;;;;;5081746;28;20047;-58
2023/01/16 03:49:45;;;;;;;8.73;4.15;;;4.40;99.90;;;;;;5082942;28;20055;-58
2023/01/16 03:52:14;;;;;;;10.20;4.82;;;3.80;99.90;;;;;;5080141;28;20124;-58
2023/01/16 03:55:04;;;;;;;11.93;4.05;;;4.30;99.90;;;;;;5093229;28;20072;-58
2023/01/16 03:57:39;;;;;;;9.15;3.95;;;4.20;99.90;;;;;;5100603;28;20048;-58
2023/01/16 04:00:06;;;;;;;16.60;4.90;;;4.00;99.90;;;;;;5101694;28;20440;-59
2023/01/16 04:02:58;;;;;;;8.30;3.75;;;4.20;99.90;;;;;;5102826;28;20115;-58
2023/01/16 04:05:29;;;;;;;9.73;4.07;;;4.40;99.90;;;;;;5094469;28;20052;-58
2023/01/16 04:08:00;;;;;;;12.15;4.40;;;4.10;99.90;;;;;;5102753;28;20047;-58
2023/01/16 04:10:32;;;;;;;11.75;4.35;;;3.90;99.90;;;;;;5100873;28;20135;-57
2023/01/16 04:13:09;;;;;;;8.38;4.32;;;4.20;99.90;;;;;;5101195;28;20513;-59
2023/01/16 04:15:41;;;;;;;10.63;4.18;;;4.50;99.90;;;;;;5102320;28;20046;-58
2023/01/16 04:18:07;;;;;;;15.18;5.30;;;4.60;99.90;;;;;;5081732;28;20662;-58
2023/01/16 04:20:35;;;;;;;9.80;4.13;;;4.40;99.90;;;;;;5102460;28;20069;-58
2023/01/16 04:23:01;;;;;;;11.65;4.90;;;4.40;99.90;;;;;;5099915;28;20047;-58
2023/01/16 04:25:27;;;;;;;11.98;4.95;;;4.30;99.90;;;;;;5102386;28;20044;-58
2023/01/16 04:27:52;;;;;;;9.85;4.97;;;3.90;99.90;;;;;;5100983;28;20100;-58
2023/01/16 04:30:18;;;;;;;9.27;5.35;;;4.20;99.90;;;;;;5100460;28;20068;-58
2023/01/16 04:32:44;;;;;;;13.98;4.88;;;4.20;99.90;;;;;;5102268;28;20056;-58
2023/01/16 04:35:10;;;;;;;11.20;5.38;;;4.30;99.90;;;;;;5099641;28;20068;-57
2023/01/16 04:37:35;;;;;;;11.15;5.05;;;3.80;99.90;;;;;;5102208;28;20036;-58
2023/01/16 04:40:02;;;;;;;12.05;5.40;;;4.30;99.90;;;;;;5099757;28;20044;-58
2023/01/16 04:42:27;;;;;;;11.20;5.68;;;4.10;99.90;;;;;;5101519;28;20055;-58
2023/01/16 04:44:53;;;;;;;12.65;5.30;;;4.30;99.90;;;;;;5100880;28;20043;-57
2023/01/16 04:47:19;;;;;;;13.45;5.35;;;3.80;99.90;;;;;;5100304;28;20084;-58
2023/01/16 04:49:44;;;;;;;12.57;5.43;;;4.50;99.90;;;;;;5102115;28;20035;-58
2023/01/16 04:52:14;;;;;;;17.55;5.85;;;3.80;99.90;;;;;;5099254;28;20079;-57
2023/01/16 04:54:39;;;;;;;13.23;5.88;;;4.40;99.90;;;;;;5101769;28;20043;-59
2023/01/16 04:57:05;;;;;;;14.90;5.90;;;4.20;99.90;;;;;;5080853;28;20060;-58
2023/01/16 04:59:31;;;;;;;15.13;6.97;;;4.20;99.90;;;;;;5101556;28;20117;-58
2023/01/16 05:01:57;;;;;;;14.52;6.70;;;3.90;99.90;;;;;;5082195;28;20100;-58
2023/01/16 05:04:23;;;;;;;14.05;6.75;;;4.40;99.90;;;;;;5100139;28;20066;-58
2023/01/16 05:06:48;;;;;;;14.15;6.30;;;4.60;99.90;;;;;;5101742;28;20044;-58
2023/01/16 05:09:14;;;;;;;11.52;6.55;;;4.40;99.90;;;;;;5098890;28;20039;-58
2023/01/16 05:11:40;;;;;;;14.45;6.57;;;4.10;99.90;;;;;;5101418;28;20044;-57
2023/01/16 05:14:07;;;;;;;10.60;6.10;;;4.20;99.90;;;;;;5080499;28;20249;-58
2023/01/16 05:16:35;;;;;;;13.18;6.63;;;3.90;99.90;;;;;;5101304;28;20052;-59
2023/01/16 05:19:01;;;;;;;13.68;6.55;;;4.10;99.90;;;;;;5081989;28;20047;-58
2023/01/16 05:21:26;;;;;;;15.15;6.25;;;4.20;99.90;;;;;;5100048;28;20032;-58
2023/01/16 05:23:52;;;;;;;12.55;6.15;;;4.30;99.90;;;;;;5100837;28;20050;-58
2023/01/16 05:26:18;;;;;;;12.07;6.57;;;4.20;99.90;;;;;;5098210;28;20079;-58
2023/01/16 05:28:44;;;;;;;13.02;6.22;;;4.10;99.90;;;;;;5101250;28;20097;-59
2023/01/16 05:31:10;;;;;;;12.98;7.35;;;4.10;99.90;;;;;;5098232;28;20044;-58
2023/01/16 05:33:35;;;;;;;13.02;6.57;;;3.60;99.90;;;;;;5082798;28;20087;-58
2023/01/16 05:36:01;;;;;;;12.13;7.60;;;4.00;99.90;;;;;;5099375;28;20048;-58
2023/01/16 05:38:27;;;;;;;13.68;6.63;;;3.80;99.90;;;;;;5100181;28;20225;-59
2023/01/16 05:40:53;;;;;;;15.57;7.20;;;3.40;99.90;;;;;;5100699;28;20052;-58
2023/01/16 05:43:19;;;;;;;12.43;6.75;;;3.70;99.90;;;;;;5079744;28;20052;-58
2023/01/16 05:45:45;;;;;;;17.73;7.00;;;3.50;99.90;;;;;;5101290;28;20446;-58
2023/01/16 05:48:10;;;;;;;13.70;7.20;;;3.80;99.90;;;;;;5097837;28;20058;-58
2023/01/16 05:50:36;;;;;;;12.15;6.60;;;3.50;99.90;;;;;;5100981;28;20047;-59
2023/01/16 05:53:02;;;;;;;14.00;7.05;;;3.20;99.90;;;;;;5098361;28;20090;-59
2023/01/16 05:55:27;;;;;;;14.20;7.50;;;3.80;99.90;;;;;;5082874;28;20040;-58
2023/01/16 05:57:53;;;;;;;14.65;7.88;;;3.30;99.90;;;;;;5062046;28;20132;-58
2023/01/16 06:00:19;;;;;;;14.95;7.45;;;3.70;99.90;;;;;;5078368;28;20048;-58
2023/01/16 06:02:46;;;;;;;15.30;7.60;;;3.20;99.90;;;;;;5080590;28;20045;-58
2023/01/16 06:05:12;;;;;;;12.88;7.40;;;3.20;99.90;;;;;;5059548;28;20112;-58
2023/01/16 06:07:37;;;;;;;19.65;8.35;;;3.60;99.90;;;;;;5080689;28;20033;-59
2023/01/16 06:10:04;;;;;;;14.52;7.68;;;3.10;99.90;;;;;;5077351;28;20059;-58
2023/01/16 06:12:31;;;;;;;14.75;7.90;;;3.10;99.90;;;;;;5079891;28;20076;-58
2023/01/16 06:14:58;;;;;;;14.65;8.45;;;3.10;99.90;;;;;;5079554;28;20037;-58
2023/01/16 06:17:23;;;;;;;16.30;8.23;;;3.10;99.90;;;;;;5060187;28;20094;-58
2023/01/16 06:19:49;;;;;;;14.07;8.40;;;3.30;99.90;;;;;;5080484;28;20086;-58
2023/01/16 06:22:15;;;;;;;18.23;8.95;;;3.10;99.90;;;;;;5077304;28;20072;-58
2023/01/16 06:24:41;;;;;;;18.92;9.27;;;3.20;99.90;;;;;;5080111;28;20040;-58
2023/01/16 06:27:06;;;;;;;16.75;8.95;;;3.30;99.90;;;;;;5077160;28;20033;-58
2023/01/16 06:29:32;;;;;;;17.27;10.18;;;3.60;99.90;;;;;;5080156;28;20054;-58
2023/01/16 06:31:58;;;;;;;19.17;10.23;;;3.20;99.90;;;;;;5078785;28;20427;-58
2023/01/16 06:34:23;;;;;;;15.43;9.38;;;3.50;99.90;;;;;;5078557;28;20074;-58
2023/01/16 06:36:49;;;;;;;19.52;8.93;;;3.20;99.90;;;;;;5082871;28;20453;-58
2023/01/16 06:39:15;;;;;;;20.48;9.00;;;3.80;99.90;;;;;;5081022;28;20048;-59
2023/01/16 06:41:42;;;;;;;14.95;9.35;;;3.80;99.90;;;;;;5084394;28;20056;-58
2023/01/16 06:44:08;;;;;;;16.48;9.20;;;3.40;99.90;;;;;;5080925;28;20045;-59
2023/01/16 06:46:34;;;;;;;19.90;9.13;;;4.20;99.90;;;;;;5084441;28;20043;-58
2023/01/16 06:48:59;;;;;;;19.90;10.48;;;3.50;99.90;;;;;;5082323;28;20512;-58
2023/01/16 06:51:25;;;;;;;17.35;8.70;;;3.60;99.90;;;;;;5083102;28;20041;-58
2023/01/16 06:53:51;;;;;;;16.38;8.45;;;3.40;99.90;;;;;;5087252;28;20127;-58
2023/01/16 06:56:17;;;;;;;16.88;8.32;;;3.60;99.90;;;;;;5101605;28;20044;-58
2023/01/16 06:58:43;;;;;;;16.20;8.43;;;3.70;99.90;;;;;;5103968;28;20134;-58
2023/01/16 07:01:09;;;;;;;17.33;8.68;;;3.60;99.90;;;;;;5101086;28;20092;-58
2023/01/16 07:03:34;;;;;;;17.63;8.95;;;3.60;99.90;;;;;;5103858;28;20070;-58
2023/01/16 07:06:00;;;;;;;15.25;8.90;;;3.50;99.90;;;;;;5101931;28;20076;-58
2023/01/16 07:08:26;;;;;;;18.40;8.60;;;3.70;99.90;;;;;;5064707;28;20040;-58
2023/01/16 07:10:51;;;;;;;16.38;8.18;;;3.20;99.90;;;;;;5081541;28;20058;-58
2023/01/16 07:13:19;;;;;;;17.23;9.88;;;3.40;99.90;;;;;;5096834;28;20051;-58
2023/01/16 07:24:08;;;;;;;17.50;8.55;;;3.40;99.90;;;;;;5079733;28;20102;-59
2023/01/16 07:26:37;;;;;;;19.75;8.18;;;3.30;99.90;;;;;;5058570;28;20044;-58
2023/01/16 07:29:03;;;;;;;17.73;9.02;;;3.60;99.90;;;;;;5079483;28;20049;-58
2023/01/16 07:31:31;;;;;;;17.50;9.82;;;3.60;99.90;;;;;;5076304;28;20057;-58
2023/01/16 07:33:57;;;;;;;14.55;8.27;;;3.20;99.90;;;;;;5079016;28;20052;-58
2023/01/16 07:36:22;;;;;;;16.40;8.90;;;3.60;99.90;;;;;;5078334;28;20060;-59
2023/01/16 07:38:49;;;;;;;15.65;8.23;;;3.30;99.90;;;;;;5077095;28;20048;-59
2023/01/16 07:41:15;;;;;;;18.85;9.18;;;3.50;99.90;;;;;;5079535;28;20052;-58
2023/01/16 07:43:41;;;;;;;17.23;9.02;;;2.90;99.90;;;;;;5075892;28;20040;-59
2023/01/16 07:46:07;;;;;;;15.18;8.50;;;3.20;99.90;;;;;;5078790;28;20099;-58
2023/01/16 07:48:32;;;;;;;14.75;8.32;;;3.20;99.90;;;;;;5076491;28;20524;-58
2023/01/16 07:50:59;;;;;;;17.50;8.10;;;3.10;99.90;;;;;;5079007;28;20048;-58
2023/01/16 07:53:27;;;;;;;18.52;8.43;;;3.00;99.90;;;;;;5078054;28;20082;-59
2023/01/16 07:55:55;;;;;;;17.25;7.97;;;3.40;99.90;;;;;;5096925;28;20096;-59
2023/01/16 07:58:21;;;;;;;22.25;8.60;;;3.40;99.90;;;;;;5099289;28;20040;-59
2023/01/16 08:00:47;;;;;;;15.88;8.13;;;3.50;99.90;;;;;;5096109;28;20074;-59
2023/01/16 08:03:14;;;;;;;12.80;7.18;;;3.40;99.90;;;;;;5098981;28;20089;-59
2023/01/16 08:05:40;;;;;;;16.00;7.50;;;3.50;99.90;;;;;;5095043;28;20067;-59
2023/01/16 08:08:06;;;;;;;16.27;6.68;;;3.60;99.90;;;;;;5097916;28;20083;-59
2023/01/16 08:10:32;;;;;;;17.30;7.40;;;3.00;99.90;;;;;;5079375;28;20082;-58
2023/01/16 08:12:58;;;;;;;16.17;7.72;;;3.00;99.90;;;;;;5096467;28;20079;-57
2023/01/16 08:15:23;;;;;;;18.13;7.03;;;3.60;99.90;;;;;;5097735;28;20044;-57
2023/01/16 08:17:49;;;;;;;12.60;6.18;;;3.60;99.90;;;;;;5095764;28;20068;-58
2023/01/16 08:20:15;;;;;;;14.50;6.53;;;3.60;99.90;;;;;;5098215;28;20040;-58
2023/01/16 08:22:49;;;;;;;12.20;6.72;;;3.60;99.90;;;;;;5077251;28;20040;-58
2023/01/16 08:25:18;;;;;;;15.88;6.07;;;3.30;99.90;;;;;;5079482;28;20693;-57
2023/01/16 08:27:44;;;;;;;15.15;6.57;;;3.60;99.90;;;;;;5097438;28;20036;-58
2023/01/16 08:30:11;;;;;;;12.88;6.68;;;3.20;99.90;;;;;;5095647;28;20471;-58
2023/01/16 08:32:37;;;;;;;14.43;6.78;;;3.60;99.90;;;;;;5097718;28;20051;-58
2023/01/16 08:35:04;;;;;;;17.13;6.55;;;3.20;99.90;;;;;;5095552;28;20040;-59
2023/01/16 08:37:30;;;;;;;15.18;8.57;;;3.20;99.90;;;;;;5098759;28;20058;-57
2023/01/16 08:39:56;;;;;;;14.73;6.70;;;3.70;99.90;;;;;;5095925;28;20074;-58
2023/01/16 08:53:29;;;;;;;13.90;6.55;;;3.60;99.90;;;;;;5078143;28;20054;-58
2023/01/16 08:55:55;;;;;;;12.55;6.32;;;3.70;99.90;;;;;;5075462;28;20045;-58
2023/01/16 08:58:21;;;;;;;14.60;5.82;;;3.90;99.90;;;;;;5077123;28;20108;-58
2023/01/16 09:00:48;;;;;;;12.45;6.18;;;3.80;99.90;;;;;;5074784;28;20072;-57
2023/01/16 09:03:17;;;;;;;12.00;6.40;;;3.90;99.90;;;;;;5077854;28;20052;-58
2023/01/16 09:05:43;;;;;;;15.00;6.53;;;3.90;99.90;;;;;;5075085;28;20504;-58
2023/01/16 09:08:09;;;;;;;13.90;6.38;;;3.80;99.90;;;;;;5076965;28;20044;-58
2023/01/16 09:10:35;;;;;;;13.23;5.82;;;3.70;99.90;;;;;;5076421;28;20048;-58
2023/01/16 09:15:45;;;;;;;12.88;5.82;;;3.80;99.90;;;;;;5077830;28;20051;-58
2023/01/16 09:18:11;;;;;;;13.40;6.07;;;3.50;99.90;;;;;;5057717;28;20520;-57
2023/01/16 09:20:36;;;;;;;11.50;6.65;;;3.70;99.90;;;;;;5079461;28;20109;-58
2023/01/16 09:23:03;;;;;;;14.90;6.53;;;3.60;99.90;;;;;;5078533;28;20048;-58
2023/01/16 09:25:30;;;;;;;12.80;5.93;;;4.00;99.90;;;;;;5080424;28;20273;-58
2023/01/16 09:27:56;;;;;;;19.05;6.72;;;4.10;99.90;;;;;;5080942;28;20412;-59
2023/01/16 09:30:22;;;;;;;14.75;5.93;;;3.80;99.90;;;;;;5080251;28;20135;-58
2023/01/16 09:32:47;;;;;;;15.43;6.43;;;3.70;99.90;;;;;;5101404;28;20098;-57
2023/01/16 09:35:14;;;;;;;13.85;6.13;;;3.80;99.90;;;;;;5080144;28;20040;-57
2023/01/16 09:37:42;;;;;;;14.23;7.00;;;3.60;99.90;;;;;;5082799;28;20048;-58
2023/01/16 09:40:13;;;;;;;12.77;5.63;;;3.80;99.90;;;;;;5098920;28;20069;-56
2023/01/16 09:45:58;;;;;;;12.93;5.63;;;3.70;99.90;;;;;;5100157;28;20036;-58
2023/01/16 09:48:33;;;;;;;11.55;6.03;;;3.70;99.90;;;;;;5094435;28;20036;-57
2023/01/16 09:51:10;;;;;;;12.80;5.75;;;3.80;99.90;;;;;;5088619;28;20059;-58
2023/01/16 09:58:35;;;;;;;10.70;4.97;;;3.70;99.90;;;;;;5087869;28;20108;-57
2023/01/16 09:59:39;;;;;;;11.43;5.88;;;4.00;99.90;;;;;;5072020;28;20055;-58
2023/01/16 10:02:07;;;;;;;13.85;5.10;;;4.20;99.90;;;;;;5089129;28;20079;-58
2023/01/16 10:04:33;;;;;;;11.60;5.82;;;4.00;99.90;;;;;;5086297;28;20629;-57
2023/01/16 10:07:04;;;;;;;10.95;4.85;;;3.90;99.90;;;;;;5089956;28;20449;-58
2023/01/16 10:10:07;;;;;;;9.50;4.68;;;4.20;99.90;;;;;;5087033;28;20073;-58
2023/01/16 10:12:35;;;;;;;11.88;5.22;;;4.20;99.90;;;;;;5081835;28;20045;-58
2023/01/16 10:15:32;;;;;;;12.73;5.10;;;3.90;99.90;;;;;;5079851;28;20051;-57
2023/01/16 10:18:29;;;;;;;13.48;5.35;;;3.90;99.90;;;;;;5078525;28;20462;-58
2023/01/16 10:21:22;;;;;;;10.88;5.22;;;3.90;99.90;;;;;;5089880;28;20545;-58
2023/01/16 10:24:16;;;;;;;10.93;4.78;;;4.30;99.90;;;;;;5089039;28;20048;-58
2023/01/16 10:26:45;;;;;;;14.00;5.75;;;4.00;99.90;;;;;;5081673;28;20106;-58
2023/01/16 10:29:28;;;;;;;11.68;4.13;;;4.40;99.90;;;;;;5082244;28;20040;-58
2023/01/16 10:32:29;;;;;;;12.77;5.55;;;3.90;99.90;;;;;;5098824;28;20044;-57
2023/01/16 10:35:09;;;;;;;10.13;4.60;;;4.20;99.90;;;;;;5096852;28;20104;-58
2023/01/16 10:37:37;;;;;;;8.98;4.07;;;4.40;99.90;;;;;;5100540;28;20037;-59
2023/01/16 10:40:29;;;;;;;10.43;4.28;;;4.00;99.90;;;;;;5098016;28;20306;-58
2023/01/16 10:51:17;;;;;;;7.55;3.72;;;3.90;99.90;;;;;;5098623;28;20044;-58
2023/01/16 10:53:43;;;;;;;8.68;3.55;;;4.50;99.90;;;;;;5097337;28;20372;-58
2023/01/16 10:56:09;;;;;;;10.45;3.80;;;4.40;99.90;;;;;;5077456;28;20106;-59
2023/01/16 10:58:37;;;;;;;8.07;3.60;;;4.40;99.90;;;;;;5080073;28;20042;-60
2023/01/16 11:01:16;;;;;;;8.57;3.55;;;4.40;99.90;;;;;;5077085;28;20048;-61
2023/01/16 11:03:46;;;;;;;10.32;3.88;;;4.50;99.90;;;;;;5061830;28;20048;-62
2023/01/16 11:06:30;;;;;;;9.80;3.50;;;3.90;99.90;;;;;;5079105;28;20041;-63
2023/01/16 11:09:15;;;;;;;6.13;3.05;;;3.80;99.90;;;;;;5076853;28;20044;-65
2023/01/16 11:20:11;;;;;;;9.48;2.90;;;3.50;99.90;;;;;;5088459;28;20036;-64
2023/01/16 11:22:40;;;;;;;6.15;2.45;;;4.00;99.90;;;;;;5099340;28;20075;-64
2023/01/16 11:25:09;;;;;;;6.28;2.42;;;3.40;99.90;;;;;;5058012;28;20115;-64
2023/01/16 11:27:37;;;;;;;6.43;2.40;;;3.40;99.90;;;;;;5064365;28;20048;-63
2023/01/16 11:30:11;;;;;;;6.45;2.50;;;4.10;99.90;;;;;;5063399;28;20067;-63
2023/01/16 11:32:44;;;;;;;5.15;2.40;;;3.50;99.90;;;;;;5082379;28;20094;-63
2023/01/16 11:35:15;;;;;;;6.05;2.28;;;3.60;99.90;;;;;;5078855;28;20123;-63
2023/01/16 11:37:44;;;;;;;5.45;2.45;;;3.90;99.90;;;;;;5064427;28;20516;-63
2023/01/16 11:40:18;;;;;;;5.45;2.40;;;3.50;99.90;;;;;;5081349;28;20047;-62
2023/01/16 11:46:03;;;;;;;5.70;2.20;;;3.80;99.90;;;;;;5083107;28;20090;-62
2023/01/16 11:48:48;;;;;;;5.75;1.90;;;3.80;99.90;;;;;;5083135;28;20036;-62
2023/01/16 11:51:17;;;;;;;7.07;2.15;;;3.40;99.90;;;;;;5092526;28;20054;-61
2023/01/16 11:53:45;;;;;;;5.15;2.38;;;3.80;99.90;;;;;;5090350;28;20440;-62
2023/01/16 11:56:29;;;;;;;6.20;3.03;;;3.70;99.90;;;;;;5070491;28;20059;-61
2023/01/16 11:59:32;;;;;;;6.25;2.90;;;3.30;99.90;;;;;;5093425;28;20035;-62
2023/01/16 12:02:18;;;;;;;6.13;2.45;;;3.80;99.90;;;;;;5091416;28;20041;-61
2023/01/16 12:08:20;;;;;;;5.63;2.50;;;3.60;99.90;;;;;;5089985;28;20052;-61
2023/01/16 12:11:06;;;;;;;7.63;2.78;;;3.30;99.90;;;;;;5093113;28;20048;-61
2023/01/16 12:14:18;;;;;;;7.03;2.67;;;3.30;99.90;;;;;;5079515;28;20048;-61
2023/01/16 12:17:16;;;;;;;4.68;2.08;;;3.30;99.90;;;;;;5064111;28;20049;-61
2023/01/16 12:20:12;;;;;;;7.38;2.22;;;3.30;99.90;;;;;;5087985;28;20454;-61
2023/01/16 12:23:02;;;;;;;6.95;2.50;;;3.60;99.90;;;;;;5053332;28;20113;-61
2023/01/16 12:25:43;;;;;;;5.60;2.05;;;3.90;99.90;;;;;;5071987;28;20036;-61
2023/01/16 12:28:27;;;;;;;7.28;2.63;;;4.30;99.90;;;;;;5090990;28;20037;-60
2023/01/16 12:31:17;;;;;;;4.90;1.70;;;3.40;99.90;;;;;;5088366;28;20550;-60
2023/01/16 12:34:04;;;;;;;4.43;1.90;;;3.40;99.90;;;;;;5092706;28;20080;-61
2023/01/16 12:36:51;;;;;;;5.25;2.85;;;4.00;99.90;;;;;;5091154;28;20059;-60
2023/01/16 12:39:37;;;;;;;4.28;1.83;;;3.40;99.90;;;;;;5089554;28;20063;-61
2023/01/16 12:45:15;;;;;;;4.88;2.00;;;3.70;99.90;;;;;;5102119;28;20147;-60
2023/01/16 12:48:16;;;;;;;4.60;1.98;;;3.40;99.90;;;;;;5099519;28;20054;-61
2023/01/16 12:50:47;;;;;;;4.25;1.92;;;4.00;99.90;;;;;;4999836;28;20121;-61
2023/01/16 12:53:31;;;;;;;6.40;2.13;;;3.40;99.90;;;;;;5083565;28;20059;-61
2023/01/16 12:56:38;;;;;;;5.47;1.90;;;3.80;99.90;;;;;;5079553;28;20036;-61
2023/01/16 12:59:21;;;;;;;4.20;2.00;;;3.50;99.90;;;;;;5041881;28;20087;-61
2023/01/16 13:01:53;;;;;;;6.70;2.40;;;4.10;99.90;;;;;;5080333;28;20055;-60
2023/01/16 13:04:39;;;;;;;4.95;2.40;;;3.90;99.90;;;;;;5079827;28;20024;-61
2023/01/16 13:07:06;;;;;;;4.97;2.20;;;3.90;99.90;;;;;;5081081;28;20041;-61
2023/01/16 13:09:38;;;;;;;4.90;2.17;;;3.70;99.90;;;;;;5060125;28;20052;-60
2023/01/16 13:15:25;;;;;;;8.00;2.58;;;4.20;99.90;;;;;;5080763;28;20052;-61
2023/01/16 13:18:06;;;;;;;5.70;2.50;;;4.20;99.90;;;;;;5078649;28;20028;-61
2023/01/16 13:20:32;;;;;;;5.68;2.50;;;3.50;99.90;;;;;;5063423;28;20474;-61
2023/01/16 13:23:04;;;;;;;7.55;2.55;;;4.20;99.90;;;;;;5078815;28;20041;-60
2023/01/16 13:25:37;;;;;;;7.80;2.55;;;4.20;99.90;;;;;;5079627;28;20056;-61
2023/01/16 13:28:10;;;;;;;5.38;2.72;;;3.70;99.90;;;;;;5081071;28;20456;-61
2023/01/16 13:30:36;;;;;;;5.82;2.50;;;3.90;99.90;;;;;;5078023;28;20095;-61
2023/01/16 13:33:15;;;;;;;5.25;2.38;;;4.20;99.90;;;;;;5080991;28;20515;-61
2023/01/16 13:35:58;;;;;;;5.20;2.40;;;3.90;99.90;;;;;;5060781;28;20041;-61
2023/01/16 13:38:45;;;;;;;6.00;2.55;;;4.30;99.90;;;;;;5079755;28;20447;-61
2023/01/16 13:41:17;;;;;;;5.30;2.40;;;4.40;99.90;;;;;;5065616;28;20048;-60
2023/01/16 13:46:40;;;;;;;5.32;2.60;;;4.20;99.90;;;;;;5090098;28;20043;-61
2023/01/16 13:49:09;;;;;;;7.07;2.50;;;3.70;99.90;;;;;;5070210;28;20100;-61
2023/01/16 13:51:43;;;;;;;7.15;2.83;;;4.30;99.90;;;;;;5086091;28;20103;-61
2023/01/16 13:54:19;;;;;;;5.90;2.70;;;3.90;99.90;;;;;;5088963;28;20052;-61
2023/01/16 13:57:03;;;;;;;6.75;2.95;;;3.80;99.90;;;;;;5096499;28;20047;-61
2023/01/16 13:59:49;;;;;;;9.07;3.05;;;3.90;99.90;;;;;;5100676;28;20100;-60
2023/01/16 14:02:25;;;;;;;5.18;2.88;;;4.40;99.90;;;;;;5100693;28;20153;-62
2023/01/16 14:05:06;;;;;;;6.68;2.58;;;4.50;99.90;;;;;;5097928;28;20052;-61
2023/01/16 14:10:44;;;;;;;5.70;2.88;;;4.50;99.90;;;;;;5100419;28;20058;-61
2023/01/16 14:13:15;;;;;;;6.30;2.92;;;4.60;99.90;;;;;;5079697;28;20040;-62
2023/01/16 14:18:38;;;;;;;7.07;2.90;;;4.30;99.90;;;;;;5098519;28;20046;-62
2023/01/16 14:21:25;;;;;;;7.47;3.72;;;3.90;99.90;;;;;;5099540;28;20113;-62
2023/01/16 14:24:00;;;;;;;6.68;3.00;;;4.40;99.90;;;;;;5099759;28;20051;-61
2023/01/16 14:27:02;;;;;;;7.10;3.13;;;3.90;99.90;;;;;;5097170;28;20047;-62